Terminal Aerodrome Forecast
Issued by NWS

Current Version | Previous Version | Graphics & Text | Print | Product List | Glossary Off
Versions: 1 2 3 4 5 6 7 8 9 10 11 12 13 14 15 16 17 18

447
FTUS41 KPBZ 281008 AAA
TAFHLG
TAF AMD
KHLG 281008Z 2810/2906 VRB03KT P6SM SCT015 OVC070
      TEMPO 2812/2815 5SM BR BKN015
     FM281500 06004KT P6SM -SHRA OVC015
     FM282100 02005KT P6SM SHRA BKN025
     FM290300 04009KT 3SM SHRA BR OVC015
     FM290500 04009KT 3SM SHRA BR BKN008=

USA.gov is the U.S. government's official web portal to all federal, state and local government web resources and services.